Portada
METAR-TAF:

METAR-TAF

Aeroports :

Bessemer, Alabama, Estats Units d'Amèrica

latitud: 33-18-45N, longitud: 086-55-35W, altitud: 213 m

Observació

L'informe es va fer fa 1 hora i 6 minuts, a les 06:56 UTC
Vent 5 kt del Nord/Nord-Oest
Temperatura 16°C
Humitat 63%
Pressió 1022 hPa
Visibilitat: 16.1 km
Cel clar

METAR: KEKY 300656Z AUTO 33005KT 10SM CLR 16/09 A3019 RMK AO2 SLP069 T01610089

Hora: 03:02 (08:02 UTC)


TAF: manca

Observacions i pronòstics meteorològics de més de 4000 aeroports (METAR i TAF).

Les estacions disponibles són els punts grocs i vermells al mapa.

Posi el ratolí al punt desitjat per veure el nom de l'estació.

Feu clic per veure les observacions i els pronòstics meteorològics.

Per canviar el mapa: feu clic els botons verds amb una creu de color negre per apropar; al botó verd amb un guió per allunyar la imatge; o en les fletxes verdes per a mapes adjacents.


METAR-TAF: